Flugplatz Anklam

Für EDCA sind keine METAR/TAF Berichte vorhanden.
Es werden die Flugwettermeldungen vom Flugplatz Heringsdorf in 32 km Entfernung angezeigt.

Prognose für EDAH

vom 26.09. um 17:00 UTC

Am 26.09. zwischen 18:00 UTC und 20:00 UTC

Wind 15 kt aus 110° in Böen 25 kt

Sichtweite 6000 m

aufgebrochene Bewölkung in 1500 ft


Am 26.09. zwischen 18:00 UTC und 03:00 UTC zeitweise

Sichtweite 2500 m

schwacher Sprühregen

feuchter Dunst

aufgebrochene Bewölkung in 800 ft


Am 26.09. zwischen 20:00 und 23:00 UTC übergehend zu

Wind 8 kt aus 130°

Sichtweite 6000 m

aufgebrochene Bewölkung in 1500 ft

TAF EDAH 261700Z 2618/2703 11015G25KT 6000 BKN015 TEMPO 2618/2703 2500 -DZ BR BKN008 BECMG 2620/2623 13008KT
Impressum